sensor_id;sensor_type;location;lat;lon;timestamp;temperature;humidity
2100;DHT22;1055;48.854;9.302;2023-05-14T00:01:46;14.40;99.90
2100;DHT22;1055;48.854;9.302;2023-05-14T00:04:12;14.70;99.90
2100;DHT22;1055;48.854;9.302;2023-05-14T00:06:37;14.60;99.90
2100;DHT22;1055;48.854;9.302;2023-05-14T00:09:03;14.20;99.90
2100;DHT22;1055;48.854;9.302;2023-05-14T00:11:29;14.10;99.90
2100;DHT22;1055;48.854;9.302;2023-05-14T00:13:54;13.90;99.90
2100;DHT22;1055;48.854;9.302;2023-05-14T00:16:20;14.00;99.90
2100;DHT22;1055;48.854;9.302;2023-05-14T00:18:45;14.00;99.90
2100;DHT22;1055;48.854;9.302;2023-05-14T00:21:11;14.10;99.90
2100;DHT22;1055;48.854;9.302;2023-05-14T00:23:37;14.30;99.90
2100;DHT22;1055;48.854;9.302;2023-05-14T00:26:03;14.00;99.90
2100;DHT22;1055;48.854;9.302;2023-05-14T00:28:28;14.00;99.90
2100;DHT22;1055;48.854;9.302;2023-05-14T00:30:54;14.50;99.90
2100;DHT22;1055;48.854;9.302;2023-05-14T00:33:21;14.10;99.90
2100;DHT22;1055;48.854;9.302;2023-05-14T00:35:47;14.20;99.90
2100;DHT22;1055;48.854;9.302;2023-05-14T00:38:12;14.20;99.90
2100;DHT22;1055;48.854;9.302;2023-05-14T00:40:41;14.40;99.90
2100;DHT22;1055;48.854;9.302;2023-05-14T00:43:10;14.20;99.90
2100;DHT22;1055;48.854;9.302;2023-05-14T00:45:36;14.30;99.90
2100;DHT22;1055;48.854;9.302;2023-05-14T00:48:02;14.10;99.90
2100;DHT22;1055;48.854;9.302;2023-05-14T00:50:28;14.00;99.90
2100;DHT22;1055;48.854;9.302;2023-05-14T00:52:53;13.90;99.90
2100;DHT22;1055;48.854;9.302;2023-05-14T00:55:20;13.90;99.90
2100;DHT22;1055;48.854;9.302;2023-05-14T00:57:46;13.90;99.90
2100;DHT22;1055;48.854;9.302;2023-05-14T01:00:12;13.90;99.90
2100;DHT22;1055;48.854;9.302;2023-05-14T01:12:44;13.50;99.90
2100;DHT22;1055;48.854;9.302;2023-05-14T01:18:06;13.20;99.90
2100;DHT22;1055;48.854;9.302;2023-05-14T01:22:57;13.40;99.90
2100;DHT22;1055;48.854;9.302;2023-05-14T01:30:36;13.40;99.90
2100;DHT22;1055;48.854;9.302;2023-05-14T01:33:12;13.50;99.90
2100;DHT22;1055;48.854;9.302;2023-05-14T01:38:07;13.40;99.90
2100;DHT22;1055;48.854;9.302;2023-05-14T01:40:35;13.40;99.90
2100;DHT22;1055;48.854;9.302;2023-05-14T01:45:29;13.20;99.90
2100;DHT22;1055;48.854;9.302;2023-05-14T01:50:21;13.20;99.90
2100;DHT22;1055;48.854;9.302;2023-05-14T01:52:46;13.20;99.90
2100;DHT22;1055;48.854;9.302;2023-05-14T01:57:39;13.20;99.90
2100;DHT22;1055;48.854;9.302;2023-05-14T02:02:31;13.20;99.90
2100;DHT22;1055;48.854;9.302;2023-05-14T02:07:23;13.10;99.90
2100;DHT22;1055;48.854;9.302;2023-05-14T02:12:14;13.00;99.90
2100;DHT22;1055;48.854;9.302;2023-05-14T02:14:40;12.80;99.90
2100;DHT22;1055;48.854;9.302;2023-05-14T02:17:05;12.80;99.90
2100;DHT22;1055;48.854;9.302;2023-05-14T02:24:24;12.70;99.90
2100;DHT22;1055;48.854;9.302;2023-05-14T02:34:08;12.50;99.90
2100;DHT22;1055;48.854;9.302;2023-05-14T02:36:34;12.40;99.90
2100;DHT22;1055;48.854;9.302;2023-05-14T02:38:59;12.30;99.90
2100;DHT22;1055;48.854;9.302;2023-05-14T02:41:25;12.20;99.90
2100;DHT22;1055;48.854;9.302;2023-05-14T02:43:51;12.30;99.90
2100;DHT22;1055;48.854;9.302;2023-05-14T02:46:17;12.30;99.90
2100;DHT22;1055;48.854;9.302;2023-05-14T03:03:19;12.30;99.90
2100;DHT22;1055;48.854;9.302;2023-05-14T03:08:10;12.10;99.90
2100;DHT22;1055;48.854;9.302;2023-05-14T03:10:36;12.20;99.90
2100;DHT22;1055;48.854;9.302;2023-05-14T03:37:23;11.90;99.90
2100;DHT22;1055;48.854;9.302;2023-05-14T03:49:33;11.90;99.90
2100;DHT22;1055;48.854;9.302;2023-05-14T03:51:59;11.80;99.90
2100;DHT22;1055;48.854;9.302;2023-05-14T04:09:01;12.10;99.90
2100;DHT22;1055;48.854;9.302;2023-05-14T04:16:20;12.10;99.90
2100;DHT22;1055;48.854;9.302;2023-05-14T04:21:11;12.10;99.90
2100;DHT22;1055;48.854;9.302;2023-05-14T04:35:48;12.10;99.90
2100;DHT22;1055;48.854;9.302;2023-05-14T04:40:40;12.00;99.90
2100;DHT22;1055;48.854;9.302;2023-05-14T04:43:06;11.80;99.90
2100;DHT22;1055;48.854;9.302;2023-05-14T04:45:32;11.80;99.90
2100;DHT22;1055;48.854;9.302;2023-05-14T04:55:17;11.90;99.90
2100;DHT22;1055;48.854;9.302;2023-05-14T05:05:02;12.00;99.90
2100;DHT22;1055;48.854;9.302;2023-05-14T05:24:30;11.90;99.90
2100;DHT22;1055;48.854;9.302;2023-05-14T05:29:21;11.80;99.90
2100;DHT22;1055;48.854;9.302;2023-05-14T05:58:35;12.10;99.90
2100;DHT22;1055;48.854;9.302;2023-05-14T06:10:45;12.10;99.90
2100;DHT22;1055;48.854;9.302;2023-05-14T06:15:37;12.20;99.90
2100;DHT22;1055;48.854;9.302;2023-05-14T06:20:28;12.40;99.90
2100;DHT22;1055;48.854;9.302;2023-05-14T06:22:54;12.10;99.90
2100;DHT22;1055;48.854;9.302;2023-05-14T06:35:04;12.80;99.90
2100;DHT22;1055;48.854;9.302;2023-05-14T06:44:48;13.00;99.90
2100;DHT22;1055;48.854;9.302;2023-05-14T06:47:14;13.20;99.90
2100;DHT22;1055;48.854;9.302;2023-05-14T07:09:08;13.20;99.90
2100;DHT22;1055;48.854;9.302;2023-05-14T07:14:01;13.20;99.90
2100;DHT22;1055;48.854;9.302;2023-05-14T07:16:26;13.20;99.90
2100;DHT22;1055;48.854;9.302;2023-05-14T07:18:52;13.50;99.90
2100;DHT22;1055;48.854;9.302;2023-05-14T07:21:18;13.20;99.90
2100;DHT22;1055;48.854;9.302;2023-05-14T07:23:43;12.70;99.90
2100;DHT22;1055;48.854;9.302;2023-05-14T07:26:09;13.50;99.90
2100;DHT22;1055;48.854;9.302;2023-05-14T07:28:35;13.20;99.90
2100;DHT22;1055;48.854;9.302;2023-05-14T07:31:01;12.70;99.90
2100;DHT22;1055;48.854;9.302;2023-05-14T07:33:26;12.90;99.90
2100;DHT22;1055;48.854;9.302;2023-05-14T07:35:52;13.10;99.90
2100;DHT22;1055;48.854;9.302;2023-05-14T07:38:19;13.70;99.90
2100;DHT22;1055;48.854;9.302;2023-05-14T07:40:45;13.70;99.90
2100;DHT22;1055;48.854;9.302;2023-05-14T07:43:11;13.90;99.90
2100;DHT22;1055;48.854;9.302;2023-05-14T07:45:37;14.20;99.90
2100;DHT22;1055;48.854;9.302;2023-05-14T07:48:04;14.10;99.90
2100;DHT22;1055;48.854;9.302;2023-05-14T07:50:30;14.00;99.90
2100;DHT22;1055;48.854;9.302;2023-05-14T07:52:56;14.00;99.90
2100;DHT22;1055;48.854;9.302;2023-05-14T07:55:21;14.20;99.90
2100;DHT22;1055;48.854;9.302;2023-05-14T07:57:47;14.20;99.90
2100;DHT22;1055;48.854;9.302;2023-05-14T08:00:13;14.10;99.90
2100;DHT22;1055;48.854;9.302;2023-05-14T08:02:40;14.20;99.90
2100;DHT22;1055;48.854;9.302;2023-05-14T08:05:07;12.90;99.90
2100;DHT22;1055;48.854;9.302;2023-05-14T08:07:33;14.50;99.90
2100;DHT22;1055;48.854;9.302;2023-05-14T08:09:58;14.40;99.90
2100;DHT22;1055;48.854;9.302;2023-05-14T08:12:24;15.00;99.90
2100;DHT22;1055;48.854;9.302;2023-05-14T08:14:51;15.00;99.90
2100;DHT22;1055;48.854;9.302;2023-05-14T08:17:16;15.00;99.90
2100;DHT22;1055;48.854;9.302;2023-05-14T08:22:08;14.60;99.90
2100;DHT22;1055;48.854;9.302;2023-05-14T08:24:34;14.50;99.90
2100;DHT22;1055;48.854;9.302;2023-05-14T08:29:26;14.40;99.90
2100;DHT22;1055;48.854;9.302;2023-05-14T08:31:52;15.10;99.90
2100;DHT22;1055;48.854;9.302;2023-05-14T08:44:08;14.80;99.90
2100;DHT22;1055;48.854;9.302;2023-05-14T08:46:36;14.90;99.90
2100;DHT22;1055;48.854;9.302;2023-05-14T08:51:43;14.90;99.90
2100;DHT22;1055;48.854;9.302;2023-05-14T08:54:12;15.10;99.90
2100;DHT22;1055;48.854;9.302;2023-05-14T08:56:42;15.30;99.90
2100;DHT22;1055;48.854;9.302;2023-05-14T08:59:08;15.20;99.90
2100;DHT22;1055;48.854;9.302;2023-05-14T09:08:57;15.90;99.90
2100;DHT22;1055;48.854;9.302;2023-05-14T09:16:16;16.10;99.90
2100;DHT22;1055;48.854;9.302;2023-05-14T09:18:44;16.20;99.90
2100;DHT22;1055;48.854;9.302;2023-05-14T09:23:41;16.30;99.90
2100;DHT22;1055;48.854;9.302;2023-05-14T09:40:46;16.70;99.90
2100;DHT22;1055;48.854;9.302;2023-05-14T09:45:39;17.00;99.90
2100;DHT22;1055;48.854;9.302;2023-05-14T09:48:05;17.30;99.90
2100;DHT22;1055;48.854;9.302;2023-05-14T10:15:16;17.70;99.90
2100;DHT22;1055;48.854;9.302;2023-05-14T10:37:22;18.30;99.90
2100;DHT22;1055;48.854;9.302;2023-05-14T10:57:20;17.70;99.90
2100;DHT22;1055;48.854;9.302;2023-05-14T11:02:33;17.40;99.90
2100;DHT22;1055;48.854;9.302;2023-05-14T11:15:17;18.10;99.90
2100;DHT22;1055;48.854;9.302;2023-05-14T11:17:44;17.90;99.90
2100;DHT22;1055;48.854;9.302;2023-05-14T11:32:30;18.50;99.90
2100;DHT22;1055;48.854;9.302;2023-05-14T11:57:00;18.80;99.90
2100;DHT22;1055;48.854;9.302;2023-05-14T12:14:15;19.30;99.90
2100;DHT22;1055;48.854;9.302;2023-05-14T12:26:33;19.20;99.90
2100;DHT22;1055;48.854;9.302;2023-05-14T12:38:59;18.40;99.90
2100;DHT22;1055;48.854;9.302;2023-05-14T12:53:43;19.90;99.90
2100;DHT22;1055;48.854;9.302;2023-05-14T13:01:01;19.90;99.90
2100;DHT22;1055;48.854;9.302;2023-05-14T14:02:04;21.10;99.90
2100;DHT22;1055;48.854;9.302;2023-05-14T14:06:59;21.20;99.90
2100;DHT22;1055;48.854;9.302;2023-05-14T14:09:27;20.70;99.90
2100;DHT22;1055;48.854;9.302;2023-05-14T14:11:54;20.90;99.90
2100;DHT22;1055;48.854;9.302;2023-05-14T14:14:24;20.20;99.90
2100;DHT22;1055;48.854;9.302;2023-05-14T14:16:51;20.70;99.90
2100;DHT22;1055;48.854;9.302;2023-05-14T14:19:17;20.40;99.90
2100;DHT22;1055;48.854;9.302;2023-05-14T14:21:44;20.70;99.90
2100;DHT22;1055;48.854;9.302;2023-05-14T14:24:10;20.90;99.90
2100;DHT22;1055;48.854;9.302;2023-05-14T14:26:36;20.50;99.90
2100;DHT22;1055;48.854;9.302;2023-05-14T14:29:01;19.80;99.90
2100;DHT22;1055;48.854;9.302;2023-05-14T14:31:27;19.40;99.90
2100;DHT22;1055;48.854;9.302;2023-05-14T14:33:53;20.00;99.90
2100;DHT22;1055;48.854;9.302;2023-05-14T14:36:19;19.50;99.90
2100;DHT22;1055;48.854;9.302;2023-05-14T14:38:44;19.70;99.90
2100;DHT22;1055;48.854;9.302;2023-05-14T14:41:10;19.40;99.90
2100;DHT22;1055;48.854;9.302;2023-05-14T14:43:37;19.50;99.90
2100;DHT22;1055;48.854;9.302;2023-05-14T14:46:02;19.30;99.90
2100;DHT22;1055;48.854;9.302;2023-05-14T14:48:32;18.90;99.90
2100;DHT22;1055;48.854;9.302;2023-05-14T14:50:59;19.10;99.90
2100;DHT22;1055;48.854;9.302;2023-05-14T14:53:28;19.30;99.90
2100;DHT22;1055;48.854;9.302;2023-05-14T14:55:53;18.90;99.90
2100;DHT22;1055;48.854;9.302;2023-05-14T14:58:20;18.90;99.90
2100;DHT22;1055;48.854;9.302;2023-05-14T15:00:47;18.80;99.90
2100;DHT22;1055;48.854;9.302;2023-05-14T15:03:13;18.70;99.90
2100;DHT22;1055;48.854;9.302;2023-05-14T15:05:39;18.90;99.90
2100;DHT22;1055;48.854;9.302;2023-05-14T15:08:05;19.00;99.90
2100;DHT22;1055;48.854;9.302;2023-05-14T15:10:31;18.90;99.90
2100;DHT22;1055;48.854;9.302;2023-05-14T15:12:57;17.60;99.90
2100;DHT22;1055;48.854;9.302;2023-05-14T15:15:24;18.70;99.90
2100;DHT22;1055;48.854;9.302;2023-05-14T15:17:50;18.50;99.90
2100;DHT22;1055;48.854;9.302;2023-05-14T15:20:16;18.60;99.90
2100;DHT22;1055;48.854;9.302;2023-05-14T15:22:42;18.70;99.90
2100;DHT22;1055;48.854;9.302;2023-05-14T15:25:08;18.60;99.90
2100;DHT22;1055;48.854;9.302;2023-05-14T15:27:34;18.40;99.90
2100;DHT22;1055;48.854;9.302;2023-05-14T15:30:00;18.30;99.90
2100;DHT22;1055;48.854;9.302;2023-05-14T15:32:25;18.50;99.90
2100;DHT22;1055;48.854;9.302;2023-05-14T15:34:53;18.60;99.90
2100;DHT22;1055;48.854;9.302;2023-05-14T15:37:19;18.70;99.90
2100;DHT22;1055;48.854;9.302;2023-05-14T15:39:45;18.50;99.90
2100;DHT22;1055;48.854;9.302;2023-05-14T15:42:11;18.40;99.90
2100;DHT22;1055;48.854;9.302;2023-05-14T15:44:37;18.80;99.90
2100;DHT22;1055;48.854;9.302;2023-05-14T15:47:03;19.00;99.90
2100;DHT22;1055;48.854;9.302;2023-05-14T15:49:28;19.20;99.90
2100;DHT22;1055;48.854;9.302;2023-05-14T15:51:54;19.60;99.90
2100;DHT22;1055;48.854;9.302;2023-05-14T15:54:20;20.20;99.90
2100;DHT22;1055;48.854;9.302;2023-05-14T15:56:45;20.70;99.90
2100;DHT22;1055;48.854;9.302;2023-05-14T15:59:11;20.80;99.90
2100;DHT22;1055;48.854;9.302;2023-05-14T16:01:39;21.00;99.90
2100;DHT22;1055;48.854;9.302;2023-05-14T16:04:05;21.30;99.90
2100;DHT22;1055;48.854;9.302;2023-05-14T16:06:32;21.20;99.90
2100;DHT22;1055;48.854;9.302;2023-05-14T16:08:58;21.10;99.90
2100;DHT22;1055;48.854;9.302;2023-05-14T16:11:25;21.60;99.90
2100;DHT22;1055;48.854;9.302;2023-05-14T16:13:50;22.00;98.90
2100;DHT22;1055;48.854;9.302;2023-05-14T16:16:16;22.10;97.00
2100;DHT22;1055;48.854;9.302;2023-05-14T16:18:42;21.50;96.90
2100;DHT22;1055;48.854;9.302;2023-05-14T16:21:09;22.10;95.70
2100;DHT22;1055;48.854;9.302;2023-05-14T16:23:34;21.80;96.70
2100;DHT22;1055;48.854;9.302;2023-05-14T16:26:00;22.00;96.60
2100;DHT22;1055;48.854;9.302;2023-05-14T16:28:26;21.70;95.40
2100;DHT22;1055;48.854;9.302;2023-05-14T16:30:52;21.00;95.30
2100;DHT22;1055;48.854;9.302;2023-05-14T16:33:17;20.70;96.10
2100;DHT22;1055;48.854;9.302;2023-05-14T16:35:43;20.70;96.90
2100;DHT22;1055;48.854;9.302;2023-05-14T16:38:10;20.60;97.10
2100;DHT22;1055;48.854;9.302;2023-05-14T16:40:35;20.80;96.80
2100;DHT22;1055;48.854;9.302;2023-05-14T16:43:01;21.20;96.90
2100;DHT22;1055;48.854;9.302;2023-05-14T16:45:27;21.20;96.40
2100;DHT22;1055;48.854;9.302;2023-05-14T16:47:52;21.50;95.50
2100;DHT22;1055;48.854;9.302;2023-05-14T16:50:18;21.40;96.70
2100;DHT22;1055;48.854;9.302;2023-05-14T16:52:44;21.20;94.90
2100;DHT22;1055;48.854;9.302;2023-05-14T16:55:10;21.50;94.80
2100;DHT22;1055;48.854;9.302;2023-05-14T16:57:35;21.70;95.20
2100;DHT22;1055;48.854;9.302;2023-05-14T17:00:01;21.80;94.70
2100;DHT22;1055;48.854;9.302;2023-05-14T17:02:30;22.20;94.70
2100;DHT22;1055;48.854;9.302;2023-05-14T17:04:57;21.90;93.40
2100;DHT22;1055;48.854;9.302;2023-05-14T17:07:23;21.50;93.00
2100;DHT22;1055;48.854;9.302;2023-05-14T17:09:48;21.30;92.70
2100;DHT22;1055;48.854;9.302;2023-05-14T17:12:14;21.20;93.30
2100;DHT22;1055;48.854;9.302;2023-05-14T17:14:40;21.30;92.90
2100;DHT22;1055;48.854;9.302;2023-05-14T17:17:05;21.30;92.30
2100;DHT22;1055;48.854;9.302;2023-05-14T17:19:31;21.80;91.10
2100;DHT22;1055;48.854;9.302;2023-05-14T17:21:57;21.60;90.60
2100;DHT22;1055;48.854;9.302;2023-05-14T17:24:22;21.40;91.70
2100;DHT22;1055;48.854;9.302;2023-05-14T17:29:14;21.80;90.50
2100;DHT22;1055;48.854;9.302;2023-05-14T17:31:40;21.70;90.10
2100;DHT22;1055;48.854;9.302;2023-05-14T18:03:19;20.40;91.90
2100;DHT22;1055;48.854;9.302;2023-05-14T18:05:45;20.40;92.30
2100;DHT22;1055;48.854;9.302;2023-05-14T18:15:29;20.10;93.10
2100;DHT22;1055;48.854;9.302;2023-05-14T19:01:52;19.20;99.60
2100;DHT22;1055;48.854;9.302;2023-05-14T19:31:04;18.30;99.90
2100;DHT22;1055;48.854;9.302;2023-05-14T19:38:22;18.30;99.90
2100;DHT22;1055;48.854;9.302;2023-05-14T19:40:48;18.30;99.90
2100;DHT22;1055;48.854;9.302;2023-05-14T19:43:14;18.10;99.90
2100;DHT22;1055;48.854;9.302;2023-05-14T19:45:40;18.00;99.90
2100;DHT22;1055;48.854;9.302;2023-05-14T19:48:07;17.70;99.90
2100;DHT22;1055;48.854;9.302;2023-05-14T19:53:02;17.50;99.90
2100;DHT22;1055;48.854;9.302;2023-05-14T19:55:28;17.70;99.90
2100;DHT22;1055;48.854;9.302;2023-05-14T19:57:55;17.60;99.90
2100;DHT22;1055;48.854;9.302;2023-05-14T20:00:20;17.60;99.90
2100;DHT22;1055;48.854;9.302;2023-05-14T20:02:47;17.60;99.90
2100;DHT22;1055;48.854;9.302;2023-05-14T20:05:12;17.60;99.90
2100;DHT22;1055;48.854;9.302;2023-05-14T20:10:04;17.50;99.90
2100;DHT22;1055;48.854;9.302;2023-05-14T20:12:30;17.50;99.90
2100;DHT22;1055;48.854;9.302;2023-05-14T20:14:55;17.60;99.90
2100;DHT22;1055;48.854;9.302;2023-05-14T20:17:21;17.40;99.90
2100;DHT22;1055;48.854;9.302;2023-05-14T20:19:47;17.40;99.90
2100;DHT22;1055;48.854;9.302;2023-05-14T20:22:12;17.30;99.90
2100;DHT22;1055;48.854;9.302;2023-05-14T20:24:38;17.30;99.90
2100;DHT22;1055;48.854;9.302;2023-05-14T20:27:05;17.20;99.90
2100;DHT22;1055;48.854;9.302;2023-05-14T20:29:31;17.10;99.90
2100;DHT22;1055;48.854;9.302;2023-05-14T20:39:15;16.00;99.90
2100;DHT22;1055;48.854;9.302;2023-05-14T20:41:41;15.70;99.90
2100;DHT22;1055;48.854;9.302;2023-05-14T20:44:06;15.80;99.90
2100;DHT22;1055;48.854;9.302;2023-05-14T20:46:32;15.50;99.90
2100;DHT22;1055;48.854;9.302;2023-05-14T20:48:59;15.40;99.90
2100;DHT22;1055;48.854;9.302;2023-05-14T20:51:25;15.30;99.90
2100;DHT22;1055;48.854;9.302;2023-05-14T20:53:51;15.30;99.90
2100;DHT22;1055;48.854;9.302;2023-05-14T20:56:16;15.10;99.90
2100;DHT22;1055;48.854;9.302;2023-05-14T20:58:42;15.10;99.90
2100;DHT22;1055;48.854;9.302;2023-05-14T21:01:08;15.10;99.90
2100;DHT22;1055;48.854;9.302;2023-05-14T21:03:34;15.10;99.90
2100;DHT22;1055;48.854;9.302;2023-05-14T21:06:00;15.10;99.90
2100;DHT22;1055;48.854;9.302;2023-05-14T21:08:26;15.10;99.90
2100;DHT22;1055;48.854;9.302;2023-05-14T21:10:52;15.20;99.90
2100;DHT22;1055;48.854;9.302;2023-05-14T21:13:18;15.30;99.90
2100;DHT22;1055;48.854;9.302;2023-05-14T21:15:43;15.00;99.90
2100;DHT22;1055;48.854;9.302;2023-05-14T21:18:12;14.50;99.90
2100;DHT22;1055;48.854;9.302;2023-05-14T21:20:38;14.70;99.90
2100;DHT22;1055;48.854;9.302;2023-05-14T21:23:04;14.90;99.90
2100;DHT22;1055;48.854;9.302;2023-05-14T21:25:29;15.00;99.90
2100;DHT22;1055;48.854;9.302;2023-05-14T21:27:55;14.80;99.90
2100;DHT22;1055;48.854;9.302;2023-05-14T21:30:21;14.70;99.90
2100;DHT22;1055;48.854;9.302;2023-05-14T21:32:46;14.80;99.90
2100;DHT22;1055;48.854;9.302;2023-05-14T21:35:12;14.80;99.90
2100;DHT22;1055;48.854;9.302;2023-05-14T21:37:38;14.80;99.90
2100;DHT22;1055;48.854;9.302;2023-05-14T21:40:06;15.50;99.90
2100;DHT22;1055;48.854;9.302;2023-05-14T21:42:34;14.90;99.90
2100;DHT22;1055;48.854;9.302;2023-05-14T21:45:00;15.00;99.90
2100;DHT22;1055;48.854;9.302;2023-05-14T21:47:26;15.00;99.90
2100;DHT22;1055;48.854;9.302;2023-05-14T21:49:52;14.40;99.90
2100;DHT22;1055;48.854;9.302;2023-05-14T21:52:17;14.40;99.90
2100;DHT22;1055;48.854;9.302;2023-05-14T21:54:43;14.30;99.90
2100;DHT22;1055;48.854;9.302;2023-05-14T21:57:08;14.40;99.90
2100;DHT22;1055;48.854;9.302;2023-05-14T21:59:35;14.40;99.90
2100;DHT22;1055;48.854;9.302;2023-05-14T22:02:00;14.10;99.90
2100;DHT22;1055;48.854;9.302;2023-05-14T22:04:26;14.00;99.90
2100;DHT22;1055;48.854;9.302;2023-05-14T22:06:52;13.80;99.90
2100;DHT22;1055;48.854;9.302;2023-05-14T22:09:17;13.90;99.90
2100;DHT22;1055;48.854;9.302;2023-05-14T22:11:43;13.50;99.90
2100;DHT22;1055;48.854;9.302;2023-05-14T22:14:08;13.60;99.90
2100;DHT22;1055;48.854;9.302;2023-05-14T22:16:34;13.60;99.90
2100;DHT22;1055;48.854;9.302;2023-05-14T22:19:00;13.30;99.90
2100;DHT22;1055;48.854;9.302;2023-05-14T22:21:26;13.60;99.90
2100;DHT22;1055;48.854;9.302;2023-05-14T22:23:52;13.90;99.90
2100;DHT22;1055;48.854;9.302;2023-05-14T22:26:17;16.60;99.90
2100;DHT22;1055;48.854;9.302;2023-05-14T22:28:43;14.40;99.90
2100;DHT22;1055;48.854;9.302;2023-05-14T22:31:08;14.20;99.90
2100;DHT22;1055;48.854;9.302;2023-05-14T22:33:35;14.20;99.90
2100;DHT22;1055;48.854;9.302;2023-05-14T22:36:00;14.20;99.90
2100;DHT22;1055;48.854;9.302;2023-05-14T22:38:26;14.10;99.90
2100;DHT22;1055;48.854;9.302;2023-05-14T22:40:51;15.10;99.90
2100;DHT22;1055;48.854;9.302;2023-05-14T22:43:17;14.10;99.90
2100;DHT22;1055;48.854;9.302;2023-05-14T22:45:42;13.50;99.90
2100;DHT22;1055;48.854;9.302;2023-05-14T22:48:08;13.50;99.90
2100;DHT22;1055;48.854;9.302;2023-05-14T22:50:34;13.60;99.90
2100;DHT22;1055;48.854;9.302;2023-05-14T22:52:59;13.60;99.90
2100;DHT22;1055;48.854;9.302;2023-05-14T22:55:25;13.20;99.90
2100;DHT22;1055;48.854;9.302;2023-05-14T22:57:50;13.30;99.90
2100;DHT22;1055;48.854;9.302;2023-05-14T23:00:16;13.00;99.90
2100;DHT22;1055;48.854;9.302;2023-05-14T23:02:42;12.90;99.90
2100;DHT22;1055;48.854;9.302;2023-05-14T23:05:08;12.90;99.90
2100;DHT22;1055;48.854;9.302;2023-05-14T23:07:34;12.80;99.90
2100;DHT22;1055;48.854;9.302;2023-05-14T23:09:59;12.80;99.90
2100;DHT22;1055;48.854;9.302;2023-05-14T23:12:25;12.60;99.90
2100;DHT22;1055;48.854;9.302;2023-05-14T23:14:50;14.90;99.90
2100;DHT22;1055;48.854;9.302;2023-05-14T23:17:16;12.70;99.90
2100;DHT22;1055;48.854;9.302;2023-05-14T23:19:42;12.60;99.90
2100;DHT22;1055;48.854;9.302;2023-05-14T23:22:08;13.70;99.90
2100;DHT22;1055;48.854;9.302;2023-05-14T23:24:33;13.00;99.90
2100;DHT22;1055;48.854;9.302;2023-05-14T23:26:59;13.20;99.90
2100;DHT22;1055;48.854;9.302;2023-05-14T23:29:24;14.60;99.90
2100;DHT22;1055;48.854;9.302;2023-05-14T23:31:50;13.60;99.90
2100;DHT22;1055;48.854;9.302;2023-05-14T23:34:16;12.70;99.90
2100;DHT22;1055;48.854;9.302;2023-05-14T23:36:46;12.50;99.90
2100;DHT22;1055;48.854;9.302;2023-05-14T23:39:12;12.30;99.90
2100;DHT22;1055;48.854;9.302;2023-05-14T23:41:37;12.10;99.90
2100;DHT22;1055;48.854;9.302;2023-05-14T23:44:03;12.10;99.90
2100;DHT22;1055;48.854;9.302;2023-05-14T23:46:29;12.30;99.90
2100;DHT22;1055;48.854;9.302;2023-05-14T23:48:54;12.20;99.90
2100;DHT22;1055;48.854;9.302;2023-05-14T23:51:22;12.50;99.90
2100;DHT22;1055;48.854;9.302;2023-05-14T23:53:48;12.20;99.90
2100;DHT22;1055;48.854;9.302;2023-05-14T23:56:14;12.50;99.90
2100;DHT22;1055;48.854;9.302;2023-05-14T23:58:40;12.70;99.90
